Time;durP1;ratioP1;P1;durP2;ratioP2;P2;SDS_P1;SDS_P2;PMS_P1;PMS_P2;Temp;Humidity;BMP_temperature;BMP_pressure;BME280_temperature;BME280_humidity;BME280_pressure;Samples;Min_cycle;Max_cycle;Signal;HPM_P1;HPM_P2
2023/01/11 00:01:06;;;;;;;;;;;;;;;9.19;100.00;100634.09;5028363;28;19913;-68
2023/01/11 00:03:31;;;;;;;;;;;;;;;9.30;100.00;100609.50;5027258;28;19948;-69
2023/01/11 00:05:57;;;;;;;;;;;;;;;9.28;100.00;100610.81;5026603;28;19945;-67
2023/01/11 00:08:23;;;;;;;;;;;;;;;9.26;100.00;100619.22;5022146;28;20304;-68
2023/01/11 00:10:49;;;;;;;;;;;;;;;9.39;100.00;100612.78;5024920;28;19948;-68
2023/01/11 00:13:14;;;;;;;;;;;;;;;9.39;100.00;100607.28;5027006;28;19964;-69
2023/01/11 00:15:39;;;;;;;;;;;;;;;9.35;100.00;100604.16;5026633;28;19928;-69
2023/01/11 00:18:04;;;;;;;;;;;;;;;9.44;100.00;100601.13;5027730;28;19921;-68
2023/01/11 00:20:29;;;;;;;;;;;;;;;9.40;100.00;100591.69;5026911;28;19963;-68
2023/01/11 00:22:55;;;;;;;;;;;;;;;9.53;100.00;100599.72;5025735;28;19952;-67
2023/01/11 00:25:20;;;;;;;;;;;;;;;9.45;100.00;100586.34;5027861;28;19928;-69
2023/01/11 00:27:48;;;;;;;;;;;;;;;9.59;100.00;100593.34;5026130;28;19933;-68
2023/01/11 00:30:13;;;;;;;;;;;;;;;9.52;100.00;100587.91;5018337;28;19971;-68
2023/01/11 00:32:38;;;;;;;;;;;;;;;9.48;100.00;100577.66;5026956;28;20353;-69
2023/01/11 00:35:04;;;;;;;;;;;;;;;9.50;100.00;100581.00;5025943;28;19925;-68
2023/01/11 00:37:29;;;;;;;;;;;;;;;9.56;100.00;100578.19;5024933;28;19921;-68
2023/01/11 00:39:54;;;;;;;;;;;;;;;9.60;100.00;100576.66;5026931;28;19925;-69
2023/01/11 00:47:56;;;;;;;;;;;;;;;9.51;100.00;100585.44;5027255;28;19987;-66
2023/01/11 00:50:22;;;;;;;;;;;;;;;9.52;100.00;100579.69;5025001;28;20466;-68
2023/01/11 00:52:47;;;;;;;;;;;;;;;9.46;100.00;100588.00;5025419;28;19996;-68
2023/01/11 00:55:12;;;;;;;;;;;;;;;9.46;100.00;100579.78;5030016;28;19925;-68
2023/01/11 00:57:38;;;;;;;;;;;;;;;9.44;100.00;100580.03;5026457;28;20291;-68
2023/01/11 01:00:04;;;;;;;;;;;;;;;9.43;100.00;100582.97;5029117;28;19928;-67
2023/01/11 01:02:30;;;;;;;;;;;;;;;9.34;100.00;100575.09;5026564;28;19926;-66
2023/01/11 01:04:56;;;;;;;;;;;;;;;9.38;100.00;100570.00;5024896;28;20295;-66
2023/01/11 01:07:21;;;;;;;;;;;;;;;9.33;100.00;100570.69;5025272;28;19952;-68
2023/01/11 01:09:46;;;;;;;;;;;;;;;9.25;100.00;100575.63;5026622;28;19921;-68
2023/01/11 01:14:24;;;;;;;;;;;;;;;9.26;100.00;100569.91;5026680;28;20620;-68
2023/01/11 01:14:56;;;;;;;;;;;;;;;9.31;100.00;100580.19;5025587;28;19925;-68
2023/01/11 01:17:21;;;;;;;;;;;;;;;9.30;100.00;100576.59;5027225;28;20004;-68
2023/01/11 01:19:47;;;;;;;;;;;;;;;9.28;100.00;100580.66;5026511;28;19919;-68
2023/01/11 01:22:12;;;;;;;;;;;;;;;9.43;100.00;100582.97;5025896;28;19921;-66
2023/01/11 01:24:37;;;;;;;;;;;;;;;9.29;100.00;100591.38;5029335;28;20362;-66
2023/01/11 01:27:02;;;;;;;;;;;;;;;9.29;100.00;100591.38;5026383;28;19925;-68
2023/01/11 01:29:27;;;;;;;;;;;;;;;9.29;100.00;100583.16;5026013;28;19929;-68
2023/01/11 01:31:53;;;;;;;;;;;;;;;9.29;100.00;100585.91;5026976;28;19917;-68
2023/01/11 01:34:18;;;;;;;;;;;;;;;9.30;100.00;100584.81;5025592;28;20471;-66
2023/01/11 01:36:43;;;;;;;;;;;;;;;9.43;100.00;100588.47;5027944;28;20055;-68
2023/01/11 01:39:09;;;;;;;;;;;;;;;9.41;100.00;100575.00;5028943;28;19921;-66
2023/01/11 01:41:34;;;;;;;;;;;;;;;9.38;100.00;100580.09;5030610;28;19921;-67
2023/01/11 01:44:01;;;;;;;;;;;;;;;9.42;100.00;100587.63;5030350;28;19924;-68
2023/01/11 01:46:30;;;;;;;;;;;;;;;9.44;100.00;100581.94;5029972;28;20011;-68
2023/01/11 01:49:13;;;;;;;;;;;;;;;9.41;100.00;100583.22;5029989;28;19933;-67
2023/01/11 01:51:40;;;;;;;;;;;;;;;9.48;100.00;100572.16;5029341;28;19925;-68
2023/01/11 01:54:07;;;;;;;;;;;;;;;9.47;100.00;100568.59;5028820;28;19921;-68
2023/01/11 01:56:37;;;;;;;;;;;;;;;9.49;100.00;100573.88;5031086;28;19943;-66
2023/01/11 01:59:06;;;;;;;;;;;;;;;9.53;100.00;100572.31;5030090;28;20067;-67
2023/01/11 02:01:47;;;;;;;;;;;;;;;9.72;100.00;100581.34;5030429;28;19948;-67
2023/01/11 02:04:20;;;;;;;;;;;;;;;9.66;100.00;100569.41;5029018;28;20007;-68
2023/01/11 02:06:46;;;;;;;;;;;;;;;9.74;100.00;100563.59;5076031;23;20628;-64
2023/01/11 02:09:34;;;;;;;;;;;;;;;9.68;100.00;100569.16;5045256;28;19921;-66
2023/01/11 02:12:00;;;;;;;;;;;;;;;9.76;100.00;100566.13;5029392;28;19921;-65
2023/01/11 02:14:26;;;;;;;;;;;;;;;9.89;100.00;100565.94;5048958;28;20283;-66
2023/01/11 02:16:51;;;;;;;;;;;;;;;9.84;100.00;100569.38;5049145;28;19917;-65
2023/01/11 02:19:37;;;;;;;;;;;;;;;9.78;100.00;100573.06;5048011;28;19921;-65
2023/01/11 02:22:15;;;;;;;;;;;;;;;9.99;100.00;100566.22;5047976;28;19944;-65
2023/01/11 02:24:46;;;;;;;;;;;;;;;9.87;100.00;100574.38;5048257;28;20024;-65
2023/01/11 02:27:30;;;;;;;;;;;;;;;9.90;100.00;100575.00;5048140;28;19939;-65
2023/01/11 02:30:16;;;;;;;;;;;;;;;9.81;100.00;100569.81;5048368;28;19925;-64
2023/01/11 02:32:47;;;;;;;;;;;;;;;9.88;100.00;100567.84;5046233;28;19921;-65
2023/01/11 02:35:32;;;;;;;;;;;;;;;9.94;100.00;100568.81;5049105;28;20338;-64
2023/01/11 02:38:00;;;;;;;;;;;;;;;9.93;100.00;100558.88;5041772;28;19925;-66
2023/01/11 02:40:45;;;;;;;;;;;;;;;10.03;100.00;100561.91;5048353;28;19925;-65
2023/01/11 02:46:14;;;;;;;;;;;;;;;10.00;100.00;100554.16;5048475;28;19948;-64
2023/01/11 02:49:02;;;;;;;;;;;;;;;10.10;100.00;100561.81;5044349;28;19927;-64
2023/01/11 02:51:37;;;;;;;;;;;;;;;10.13;100.00;100555.84;5044797;28;20019;-66
2023/01/11 02:54:05;;;;;;;;;;;;;;;10.07;100.00;100562.28;5047217;28;19940;-65
2023/01/11 02:56:32;;;;;;;;;;;;;;;10.07;100.00;100552.13;5048967;28;19917;-64
2023/01/11 02:58:59;;;;;;;;;;;;;;;10.07;100.00;100552.13;5043832;28;20391;-65
2023/01/11 03:01:25;;;;;;;;;;;;;;;10.21;100.00;100551.94;5031866;28;19928;-65
2023/01/11 03:03:51;;;;;;;;;;;;;;;10.15;100.00;100556.47;5038065;28;19918;-65
2023/01/11 03:06:21;;;;;;;;;;;;;;;10.13;100.00;100561.34;5028743;28;20031;-65
2023/01/11 03:08:46;;;;;;;;;;;;;;;10.14;100.00;100563.03;5037866;28;19933;-66
2023/01/11 03:12:50;;;;;;;;;;;;;;;10.09;100.00;100557.41;5048492;28;19912;-66
2023/01/11 03:14:00;;;;;;;;;;;;;;;10.21;100.00;100551.94;5044356;28;20625;-65
2023/01/11 03:16:49;;;;;;;;;;;;;;;10.22;100.00;100551.69;5042192;28;19917;-65
2023/01/11 03:19:33;;;;;;;;;;;;;;;10.23;100.00;100547.03;5025037;28;19921;-65
2023/01/11 03:22:17;;;;;;;;;;;;;;;10.18;100.00;100538.69;5042288;28;19940;-65
2023/01/11 03:24:47;;;;;;;;;;;;;;;10.32;100.00;100538.25;5028126;28;19917;-65
2023/01/11 03:27:18;;;;;;;;;;;;;;;10.27;100.00;100537.31;5044138;28;19928;-65
2023/01/11 03:29:58;;;;;;;;;;;;;;;10.28;100.00;100548.03;5046870;28;19916;-66
2023/01/11 03:32:23;;;;;;;;;;;;;;;10.22;100.00;100543.47;5046641;28;19920;-65
2023/01/11 03:35:04;;;;;;;;;;;;;;;10.28;100.00;100542.53;5047381;28;19913;-65
2023/01/11 03:37:40;;;;;;;;;;;;;;;10.31;100.00;100542.09;5045700;28;19967;-66
2023/01/11 03:40:26;;;;;;;;;;;;;;;10.31;100.00;100546.75;5046794;28;20478;-65
2023/01/11 03:43:10;;;;;;;;;;;;;;;10.32;100.00;100548.41;5044759;28;19920;-65
2023/01/11 03:45:38;;;;;;;;;;;;;;;10.37;100.00;100545.78;5046797;28;19921;-65
2023/01/11 03:48:05;;;;;;;;;;;;;;;10.46;100.00;100552.59;5037736;28;20265;-64
2023/01/11 03:50:32;;;;;;;;;;;;;;;10.38;100.00;100547.44;5041650;28;20368;-66
2023/01/11 03:52:59;;;;;;;;;;;;;;;10.39;100.00;100555.47;5045820;28;20326;-65
2023/01/11 03:55:25;;;;;;;;;;;;;;;10.43;100.00;100546.75;5047115;28;20011;-65
2023/01/11 03:57:52;;;;;;;;;;;;;;;10.34;100.00;100547.13;5046991;28;19959;-65
2023/01/11 04:00:18;;;;;;;;;;;;;;;10.34;100.00;100547.13;5047064;28;19921;-66
2023/01/11 04:02:44;;;;;;;;;;;;;;;10.37;100.00;100560.34;5046160;28;19928;-65
2023/01/11 04:05:09;;;;;;;;;;;;;;;10.33;100.00;100552.81;5047093;28;19921;-65
2023/01/11 04:07:34;;;;;;;;;;;;;;;10.35;100.00;100554.28;5045254;28;19921;-65
2023/01/11 04:10:00;;;;;;;;;;;;;;;10.36;100.00;100555.09;5047266;28;19916;-65
2023/01/11 04:12:25;;;;;;;;;;;;;;;10.34;100.00;100558.09;5042188;28;19924;-65
2023/01/11 04:14:50;;;;;;;;;;;;;;;10.33;100.00;100550.91;5046863;28;19951;-65
2023/01/11 04:17:15;;;;;;;;;;;;;;;10.57;100.00;100560.00;5045981;28;20007;-65
2023/01/11 04:19:41;;;;;;;;;;;;;;;10.43;100.00;100561.31;5046562;28;19912;-65
2023/01/11 04:22:06;;;;;;;;;;;;;;;10.41;100.00;100579.09;5045220;28;19928;-65
2023/01/11 04:24:31;;;;;;;;;;;;;;;10.45;100.00;100577.56;5047320;28;19939;-64
2023/01/11 04:26:56;;;;;;;;;;;;;;;10.38;100.00;100566.66;5046382;28;19969;-64
2023/01/11 04:29:21;;;;;;;;;;;;;;;10.39;100.00;100571.09;5046690;28;19928;-65
2023/01/11 04:31:47;;;;;;;;;;;;;;;10.52;100.00;100575.53;5045959;28;20302;-65
2023/01/11 04:34:12;;;;;;;;;;;;;;;10.55;100.00;100564.91;5046144;28;20012;-65
2023/01/11 04:36:37;;;;;;;;;;;;;;;10.58;100.00;100564.41;5045172;28;19949;-63
2023/01/11 04:39:02;;;;;;;;;;;;;;;10.57;100.00;100562.75;5042586;28;19975;-64
2023/01/11 04:44:11;;;;;;;;;;;;;;;10.58;100.00;100561.69;5046484;28;19928;-64
2023/01/11 04:46:36;;;;;;;;;;;;;;;10.56;100.00;100572.06;5047357;28;19916;-64
2023/01/11 04:49:02;;;;;;;;;;;;;;;10.68;100.00;100574.81;5046648;28;19917;-64
2023/01/11 04:51:27;;;;;;;;;;;;;;;10.61;100.00;100591.44;5045407;28;19925;-64
2023/01/11 04:53:52;;;;;;;;;;;;;;;10.64;100.00;100585.47;5042082;28;19952;-65
2023/01/11 04:56:18;;;;;;;;;;;;;;;10.68;100.00;100585.81;5045758;28;19917;-65
2023/01/11 04:58:43;;;;;;;;;;;;;;;10.74;100.00;100590.34;5046665;28;19943;-65
2023/01/11 05:01:09;;;;;;;;;;;;;;;10.72;100.00;100594.41;5046983;28;19921;-64
2023/01/11 05:03:34;;;;;;;;;;;;;;;10.76;100.00;100593.72;5045716;28;20338;-64
2023/01/11 05:06:00;;;;;;;;;;;;;;;10.69;100.00;100603.94;5046036;28;19972;-65
2023/01/11 05:08:26;;;;;;;;;;;;;;;10.72;100.00;100597.16;5044332;28;19928;-64
2023/01/11 05:10:54;;;;;;;;;;;;;;;10.73;100.00;100594.16;5042164;28;20303;-64
2023/01/11 05:13:20;;;;;;;;;;;;;;;10.70;100.00;100593.84;5049758;28;19927;-65
2023/01/11 05:15:45;;;;;;;;;;;;;;;10.75;100.00;100596.69;5050397;28;19917;-65
2023/01/11 05:18:10;;;;;;;;;;;;;;;10.84;100.00;100598.81;5045273;28;19912;-63
2023/01/11 05:20:35;;;;;;;;;;;;;;;10.75;100.00;100602.19;5034173;28;20313;-64
2023/01/11 05:23:00;;;;;;;;;;;;;;;10.68;100.00;100606.94;5035312;28;19947;-64
2023/01/11 05:25:26;;;;;;;;;;;;;;;10.77;100.00;100622.84;5050261;28;19917;-64
2023/01/11 05:27:51;;;;;;;;;;;;;;;10.72;100.00;100619.13;5049091;28;19963;-65
2023/01/11 05:30:16;;;;;;;;;;;;;;;10.74;100.00;100609.56;5049222;28;19972;-65
2023/01/11 05:32:41;;;;;;;;;;;;;;;10.68;100.00;100617.94;5049178;28;19921;-65
2023/01/11 05:35:09;;;;;;;;;;;;;;;10.71;100.00;100618.31;5050414;28;19917;-64
2023/01/11 05:37:35;;;;;;;;;;;;;;;10.62;100.00;100615.06;5044610;28;19920;-63
2023/01/11 05:40:00;;;;;;;;;;;;;;;10.60;100.00;100627.38;5049596;28;19939;-65
2023/01/11 05:42:25;;;;;;;;;;;;;;;10.78;100.00;100610.78;5049599;28;19956;-65
2023/01/11 05:47:34;;;;;;;;;;;;;;;10.57;100.00;100623.19;5049119;28;20023;-64
2023/01/11 05:49:59;;;;;;;;;;;;;;;10.57;100.00;100625.91;5046745;28;20658;-68
2023/01/11 05:52:24;;;;;;;;;;;;;;;10.59;100.00;100625.69;5048565;28;19962;-67
2023/01/11 05:54:49;;;;;;;;;;;;;;;10.51;100.00;100618.63;5047049;28;19921;-68
2023/01/11 05:57:15;;;;;;;;;;;;;;;10.56;100.00;100632.50;5048948;28;19921;-68
2023/01/11 05:59:40;;;;;;;;;;;;;;;10.59;100.00;100639.41;5048820;28;19955;-67
2023/01/11 06:02:05;;;;;;;;;;;;;;;10.60;100.00;100633.69;5044361;28;20536;-67
2023/01/11 06:04:30;;;;;;;;;;;;;;;10.58;100.00;100643.22;5049067;28;20021;-68
2023/01/11 06:06:55;;;;;;;;;;;;;;;10.67;100.00;100638.25;5047836;28;20352;-68
2023/01/11 06:09:21;;;;;;;;;;;;;;;10.52;100.00;100644.19;5042939;28;20517;-66
2023/01/11 06:11:47;;;;;;;;;;;;;;;10.54;100.00;100642.88;5047200;28;19920;-67
2023/01/11 06:14:12;;;;;;;;;;;;;;;10.30;100.00;100655.72;5049146;28;20011;-68
2023/01/11 06:16:37;;;;;;;;;;;;;;;10.18;100.00;100643.78;5047672;28;19929;-67
2023/01/11 06:19:02;;;;;;;;;;;;;;;10.14;100.00;100645.34;5043716;28;20255;-67
2023/01/11 06:21:27;;;;;;;;;;;;;;;10.16;100.00;100658.84;5048068;28;19927;-68
2023/01/11 06:23:54;;;;;;;;;;;;;;;10.04;100.00;100656.06;5047311;28;20005;-68
2023/01/11 06:26:20;;;;;;;;;;;;;;;10.00;100.00;100671.31;5049148;28;19936;-69
2023/01/11 06:28:45;;;;;;;;;;;;;;;9.96;100.00;100675.56;5043839;28;19921;-67
2023/01/11 06:31:11;;;;;;;;;;;;;;;9.90;100.00;100677.34;5043445;28;19917;-67
2023/01/11 06:33:36;;;;;;;;;;;;;;;9.85;100.00;100685.41;5049091;28;19959;-68
2023/01/11 06:36:06;;;;;;;;;;;;;;;9.81;100.00;100682.28;5047527;28;19924;-68
2023/01/11 06:38:31;;;;;;;;;;;;;;;9.77;100.00;100683.81;5046321;28;19927;-68
2023/01/11 06:40:59;;;;;;;;;;;;;;;9.78;100.00;100693.72;5047054;28;19925;-68
2023/01/11 06:43:24;;;;;;;;;;;;;;;9.74;100.00;100703.47;5048743;28;19927;-66
2023/01/11 06:45:49;;;;;;;;;;;;;;;9.73;100.00;100714.66;5043193;28;19921;-68
2023/01/11 06:48:18;;;;;;;;;;;;;;;9.70;100.00;100712.38;5036149;28;20332;-67
2023/01/11 06:50:51;;;;;;;;;;;;;;;9.69;100.00;100714.28;5045678;28;19964;-66
2023/01/11 06:53:16;;;;;;;;;;;;;;;9.65;100.00;100709.50;5047068;28;19964;-68
2023/01/11 06:55:42;;;;;;;;;;;;;;;9.60;100.00;100711.00;5048431;28;20067;-68
2023/01/11 06:58:07;;;;;;;;;;;;;;;9.59;100.00;100746.88;5044854;28;19921;-67
2023/01/11 07:00:32;;;;;;;;;;;;;;;9.57;100.00;100751.75;5047738;28;19920;-67
2023/01/11 07:03:02;;;;;;;;;;;;;;;9.55;100.00;100754.72;5042333;28;19924;-68
2023/01/11 07:05:28;;;;;;;;;;;;;;;9.57;100.00;100749.00;5033406;28;20012;-66
2023/01/11 07:07:53;;;;;;;;;;;;;;;9.56;100.00;100739.94;5041576;28;20007;-68
2023/01/11 07:10:18;;;;;;;;;;;;;;;9.54;100.00;100744.00;5042083;28;20248;-69
2023/01/11 07:12:43;;;;;;;;;;;;;;;9.56;100.00;100739.94;5046615;28;19917;-68
2023/01/11 07:15:09;;;;;;;;;;;;;;;9.50;100.00;100746.34;5047694;28;19932;-68
2023/01/11 07:17:34;;;;;;;;;;;;;;;9.54;100.00;100758.53;5046869;28;19921;-68
2023/01/11 07:19:59;;;;;;;;;;;;;;;9.52;100.00;100765.28;5046304;28;19965;-69
2023/01/11 07:22:24;;;;;;;;;;;;;;;9.54;100.00;100761.28;5043887;28;19964;-68
2023/01/11 07:24:50;;;;;;;;;;;;;;;9.52;100.00;100768.03;5047630;28;19927;-67
2023/01/11 07:27:15;;;;;;;;;;;;;;;9.52;100.00;100768.03;5046134;28;19921;-66
2023/01/11 07:29:40;;;;;;;;;;;;;;;9.44;100.00;100765.59;5048297;28;19976;-68
2023/01/11 07:32:07;;;;;;;;;;;;;;;9.41;100.00;100785.22;5048395;28;19948;-69
2023/01/11 07:34:32;;;;;;;;;;;;;;;9.36;100.00;100781.25;5045172;28;19971;-69
2023/01/11 07:36:57;;;;;;;;;;;;;;;9.40;100.00;100791.78;5045286;28;20286;-69
2023/01/11 07:39:22;;;;;;;;;;;;;;;9.39;100.00;100792.84;5044116;28;19939;-69
2023/01/11 07:44:31;;;;;;;;;;;;;;;9.28;100.00;100798.00;5047788;28;20019;-68
2023/01/11 07:46:57;;;;;;;;;;;;;;;9.28;100.00;100798.00;5043205;28;20365;-69
2023/01/11 07:49:22;;;;;;;;;;;;;;;9.23;100.00;100797.00;5047909;28;19921;-69
2023/01/11 07:51:47;;;;;;;;;;;;;;;9.20;100.00;100797.41;5046628;28;20282;-69
2023/01/11 07:54:12;;;;;;;;;;;;;;;9.17;100.00;100804.16;5047593;28;19978;-66
2023/01/11 07:56:37;;;;;;;;;;;;;;;9.14;100.00;100815.59;5046472;28;19917;-67
2023/01/11 07:59:03;;;;;;;;;;;;;;;9.12;100.00;100816.88;5043633;28;20347;-69
2023/01/11 08:01:28;;;;;;;;;;;;;;;9.26;100.00;100826.66;5047640;28;19925;-69
2023/01/11 08:03:53;;;;;;;;;;;;;;;9.08;100.00;100830.19;5047436;28;19920;-68
2023/01/11 08:06:18;;;;;;;;;;;;;;;9.27;100.00;100831.09;5034945;28;19921;-69
2023/01/11 08:08:43;;;;;;;;;;;;;;;9.16;100.00;100829.91;5026529;28;19917;-67
2023/01/11 08:16:37;;;;;;;;;;;;;;;8.99;100.00;100857.00;5045772;28;20390;-68
2023/01/11 08:19:02;;;;;;;;;;;;;;;9.15;100.00;100852.88;5045998;28;19916;-69
2023/01/11 08:21:28;;;;;;;;;;;;;;;9.00;100.00;100860.56;5044926;28;19917;-69
2023/01/11 08:23:54;;;;;;;;;;;;;;;8.90;100.00;100872.00;5044429;28;19913;-67
2023/01/11 08:26:19;;;;;;;;;;;;;;;8.86;100.00;100883.63;5044387;28;20027;-68
2023/01/11 08:28:44;;;;;;;;;;;;;;;8.84;100.00;100884.69;5044924;28;19917;-68
2023/01/11 08:31:09;;;;;;;;;;;;;;;8.89;100.00;100894.97;5045542;28;19917;-68
2023/01/11 08:33:35;;;;;;;;;;;;;;;8.87;100.00;100899.84;5043914;28;20424;-68
2023/01/11 08:36:07;;;;;;;;;;;;;;;8.81;100.00;100908.91;5038263;28;19955;-68
2023/01/11 08:38:32;;;;;;;;;;;;;;;8.94;100.00;100921.72;5045252;28;20290;-68
2023/01/11 08:40:58;;;;;;;;;;;;;;;8.74;100.00;100924.53;5045751;28;20128;-68
2023/01/11 08:43:23;;;;;;;;;;;;;;;8.81;100.00;100937.13;5045595;28;20368;-69
2023/01/11 08:45:51;;;;;;;;;;;;;;;8.79;100.00;100930.22;5043795;28;20011;-69
2023/01/11 08:48:16;;;;;;;;;;;;;;;8.92;100.00;100932.03;5048903;28;19935;-69
2023/01/11 08:50:43;;;;;;;;;;;;;;;8.75;100.00;100927.06;5048586;28;19917;-68
2023/01/11 08:53:08;;;;;;;;;;;;;;;8.74;100.00;100932.75;5049226;28;20389;-69
2023/01/11 08:55:34;;;;;;;;;;;;;;;8.82;100.00;100936.09;5046889;28;19921;-68
2023/01/11 08:57:59;;;;;;;;;;;;;;;8.77;100.00;100941.38;5049372;28;19925;-68
2023/01/11 09:00:24;;;;;;;;;;;;;;;8.73;100.00;100940.13;5046157;28;20261;-68
2023/01/11 09:02:49;;;;;;;;;;;;;;;8.81;100.00;100937.13;5049061;28;19916;-68
2023/01/11 09:05:14;;;;;;;;;;;;;;;8.74;100.00;100941.81;5048444;28;19962;-68
2023/01/11 09:07:40;;;;;;;;;;;;;;;8.85;100.00;100943.03;5047338;28;19939;-68
2023/01/11 09:10:05;;;;;;;;;;;;;;;8.80;100.00;100938.19;5042020;28;19974;-66
2023/01/11 09:12:31;;;;;;;;;;;;;;;8.88;100.00;100941.78;5049676;28;20342;-68
2023/01/11 09:14:56;;;;;;;;;;;;;;;8.82;100.00;100946.22;5047522;28;19919;-68
2023/01/11 09:17:21;;;;;;;;;;;;;;;8.82;100.00;100940.75;5046225;28;20294;-69
2023/01/11 09:19:47;;;;;;;;;;;;;;;8.83;100.00;100945.16;5047505;28;19928;-67
2023/01/11 09:22:12;;;;;;;;;;;;;;;8.79;100.00;100950.22;5047971;28;19974;-67
2023/01/11 09:24:37;;;;;;;;;;;;;;;8.82;100.00;100954.44;5048516;28;20317;-68
2023/01/11 09:27:03;;;;;;;;;;;;;;;8.88;100.00;100953.56;5044760;28;20023;-67
2023/01/11 09:29:28;;;;;;;;;;;;;;;8.87;100.00;100961.97;5044805;28;19952;-67
2023/01/11 09:31:54;;;;;;;;;;;;;;;8.80;100.00;100967.50;5028653;28;20360;-66
2023/01/11 09:34:19;;;;;;;;;;;;;;;8.89;100.00;100982.63;5028333;28;20023;-66
2023/01/11 09:36:47;;;;;;;;;;;;;;;8.78;100.00;100981.41;5031933;28;19921;-67
2023/01/11 09:39:17;;;;;;;;;;;;;;;8.84;100.00;100977.78;5041468;28;20012;-67
2023/01/11 09:42:02;;;;;;;;;;;;;;;8.79;100.00;100977.59;5034769;28;19971;-67
2023/01/11 09:44:29;;;;;;;;;;;;;;;8.93;100.00;100992.09;5047320;28;20302;-66
2023/01/11 09:47:02;;;;;;;;;;;;;;;9.31;100.00;100996.78;5041366;28;19921;-66
2023/01/11 09:49:30;;;;;;;;;;;;;;;9.47;100.00;100995.41;5035955;28;19925;-67
2023/01/11 09:52:04;;;;;;;;;;;;;;;9.74;100.00;100990.63;5042263;28;19959;-67
2023/01/11 09:54:30;;;;;;;;;;;;;;;9.75;100.00;100997.78;5049760;28;19921;-66
2023/01/11 09:57:09;;;;;;;;;;;;;;;9.73;100.00;100998.00;5049543;28;19959;-67
2023/01/11 09:59:43;;;;;;;;;;;;;;;9.76;100.00;101003.03;5047930;28;19974;-66
2023/01/11 10:02:23;;;;;;;;;;;;;;;9.68;100.00;100996.97;5044279;28;19917;-67
2023/01/11 10:05:17;;;;;;;;;;;;;;;10.06;100.00;100996.91;5048854;28;20467;-66
2023/01/11 10:07:42;;;;;;;;;;;;;;;10.52;100.00;101009.41;5030769;28;19921;-67
2023/01/11 10:10:07;;;;;;;;;;;;;;;10.97;99.54;101012.72;5040961;28;19943;-66
2023/01/11 10:12:44;;;;;;;;;;;;;;;11.73;96.35;100993.94;5039944;28;20372;-66
2023/01/11 10:15:15;;;;;;;;;;;;;;;12.42;91.15;100998.75;5037450;28;19924;-66
2023/01/11 10:17:41;;;;;;;;;;;;;;;13.30;88.70;100984.97;5032753;28;20083;-66
2023/01/11 10:20:15;;;;;;;;;;;;;;;14.05;86.41;101005.97;5048164;28;20426;-67
2023/01/11 10:22:43;;;;;;;;;;;;;;;14.69;81.68;100998.16;5032699;28;20947;-67
2023/01/11 10:25:10;;;;;;;;;;;;;;;15.38;83.03;101001.28;5036824;28;19925;-66
2023/01/11 10:27:41;;;;;;;;;;;;;;;15.65;75.06;100994.97;5038929;28;19929;-66
2023/01/11 10:33:20;;;;;;;;;;;;;;;16.30;73.52;100988.34;5037201;28;19927;-66
2023/01/11 10:36:12;;;;;;;;;;;;;;;16.50;69.83;100988.50;5035169;28;19927;-67
2023/01/11 10:38:57;;;;;;;;;;;;;;;17.05;70.46;100995.50;5039678;28;19920;-67
2023/01/11 10:41:37;;;;;;;;;;;;;;;17.60;72.78;100998.78;5040731;28;19925;-66
2023/01/11 10:44:03;;;;;;;;;;;;;;;18.13;66.64;101002.19;5043944;28;19928;-66
2023/01/11 10:46:30;;;;;;;;;;;;;;;18.04;63.98;100992.75;5034994;28;19925;-67
2023/01/11 10:49:00;;;;;;;;;;;;;;;18.01;66.98;101015.53;5033489;28;19929;-66
2023/01/11 10:51:42;;;;;;;;;;;;;;;18.10;62.27;101008.34;5046210;28;19917;-67
2023/01/11 10:54:44;;;;;;;;;;;;;;;18.25;62.93;101011.13;5034053;28;19925;-66
2023/01/11 10:57:29;;;;;;;;;;;;;;;18.00;62.79;101006.38;5019071;28;19929;-67
2023/01/11 10:59:55;;;;;;;;;;;;;;;18.15;62.26;101009.16;5034941;28;19929;-67
2023/01/11 11:02:38;;;;;;;;;;;;;;;18.34;60.17;101005.81;5037305;28;20695;-68
2023/01/11 11:05:09;;;;;;;;;;;;;;;18.18;60.10;101009.72;5038602;28;19964;-66
2023/01/11 11:07:53;;;;;;;;;;;;;;;18.48;62.81;101012.47;5030247;28;20306;-66
2023/01/11 11:10:21;;;;;;;;;;;;;;;18.58;58.11;101012.47;5035033;28;19994;-67
2023/01/11 11:13:05;;;;;;;;;;;;;;;18.07;56.05;101020.81;5035068;28;19921;-67
2023/01/11 11:15:46;;;;;;;;;;;;;;;17.94;58.00;101018.56;5028775;28;19928;-67
2023/01/11 11:18:11;;;;;;;;;;;;;;;17.91;59.50;101021.94;5034753;28;19921;-67
2023/01/11 11:20:37;;;;;;;;;;;;;;;17.97;60.02;101018.03;5036074;28;19924;-66
2023/01/11 11:23:02;;;;;;;;;;;;;;;17.81;60.74;101011.63;5037483;28;19927;-67
2023/01/11 11:25:31;;;;;;;;;;;;;;;17.77;59.94;101010.50;5033795;28;19943;-67
2023/01/11 11:28:00;;;;;;;;;;;;;;;17.45;58.84;100999.56;5040086;28;20513;-68
2023/01/11 11:30:31;;;;;;;;;;;;;;;17.34;59.05;101008.97;5040437;28;19924;-67
2023/01/11 11:32:59;;;;;;;;;;;;;;;17.19;58.71;101015.28;5036806;28;20062;-67
2023/01/11 11:35:38;;;;;;;;;;;;;;;17.53;59.78;101010.13;5035658;28;19921;-66
2023/01/11 11:38:04;;;;;;;;;;;;;;;18.00;57.05;101020.28;5037864;28;19920;-67
2023/01/11 11:40:36;;;;;;;;;;;;;;;17.98;57.44;101011.38;5035444;28;21672;-65
2023/01/11 11:43:09;;;;;;;;;;;;;;;17.85;58.84;101031.38;5040840;28;19927;-65
2023/01/11 11:45:34;;;;;;;;;;;;;;;17.60;60.75;101030.16;5032106;28;20372;-65
2023/01/11 11:48:00;;;;;;;;;;;;;;;17.58;58.41;101025.97;5042113;28;19966;-66
2023/01/11 11:50:26;;;;;;;;;;;;;;;17.38;59.42;101035.06;5040789;28;20007;-65
2023/01/11 11:53:02;;;;;;;;;;;;;;;17.33;59.98;101035.03;5040815;28;20563;-66
2023/01/11 11:55:30;;;;;;;;;;;;;;;16.81;61.13;101030.34;5027507;28;20363;-66
2023/01/11 11:57:56;;;;;;;;;;;;;;;16.16;62.93;101028.69;5027570;28;19924;-65
2023/01/11 12:00:24;;;;;;;;;;;;;;;15.66;61.97;101041.78;5027784;28;20260;-65
2023/01/11 12:02:55;;;;;;;;;;;;;;;15.11;63.99;101039.97;5038566;28;20305;-64
2023/01/11 12:05:21;;;;;;;;;;;;;;;14.63;65.23;101035.13;5043610;28;20318;-64
2023/01/11 12:07:47;;;;;;;;;;;;;;;14.42;65.45;101034.75;5043119;28;19974;-64
2023/01/11 12:10:20;;;;;;;;;;;;;;;14.66;65.14;101029.09;5047284;28;19917;-64
2023/01/11 12:12:54;;;;;;;;;;;;;;;14.98;64.36;101027.34;5046706;28;20325;-65
2023/01/11 12:15:24;;;;;;;;;;;;;;;14.47;65.41;101028.47;5047391;28;20263;-65
2023/01/11 12:17:49;;;;;;;;;;;;;;;13.78;66.35;101025.91;5047175;28;19940;-65
2023/01/11 12:20:20;;;;;;;;;;;;;;;13.38;68.10;101036.97;5046054;28;20355;-65
2023/01/11 12:22:46;;;;;;;;;;;;;;;13.04;71.01;101045.09;5041332;28;19920;-65
2023/01/11 12:25:20;;;;;;;;;;;;;;;13.32;68.79;101037.97;5046877;28;19917;-65
2023/01/11 12:27:49;;;;;;;;;;;;;;;13.22;69.79;101042.19;5047217;28;19979;-64
2023/01/11 12:30:31;;;;;;;;;;;;;;;13.57;70.42;101043.16;5047032;28;20379;-64
2023/01/11 12:33:08;;;;;;;;;;;;;;;13.67;69.91;101060.75;5046201;28;19921;-65
2023/01/11 12:36:06;;;;;;;;;;;;;;;13.64;69.01;101046.63;5044462;28;19929;-64
2023/01/11 12:38:31;;;;;;;;;;;;;;;13.68;69.28;101042.28;5023391;28;19924;-65
2023/01/11 12:41:08;;;;;;;;;;;;;;;14.06;66.94;101033.34;5045077;28;19928;-64
2023/01/11 12:43:50;;;;;;;;;;;;;;;14.16;64.22;101046.47;5046802;28;20018;-64
2023/01/11 12:46:24;;;;;;;;;;;;;;;14.49;65.95;101045.66;5046448;28;19921;-64
2023/01/11 12:49:06;;;;;;;;;;;;;;;15.38;60.58;101041.97;5045802;28;19928;-64
2023/01/11 12:51:40;;;;;;;;;;;;;;;15.39;58.98;101050.00;5027634;28;19928;-65
2023/01/11 12:54:24;;;;;;;;;;;;;;;14.90;59.79;101051.81;5045773;28;19928;-64
2023/01/11 12:56:52;;;;;;;;;;;;;;;14.34;62.78;101043.47;5045366;28;20007;-65
2023/01/11 12:59:26;;;;;;;;;;;;;;;14.45;63.52;101047.25;5045288;28;19924;-65
2023/01/11 13:02:01;;;;;;;;;;;;;;;14.74;61.67;101036.94;5040834;28;20372;-64
2023/01/11 13:04:45;;;;;;;;;;;;;;;14.14;62.93;101049.50;5044464;28;19928;-65
2023/01/11 13:07:10;;;;;;;;;;;;;;;13.36;65.69;101040.00;5044388;28;19921;-65